Marauder — WDC2846 — position and weather

sailwx.info

Track history (hours):
 
Tides and Currents Weather Stations Pressure Air Temp Water Temp Dewpoint Dewpoint Depression Visibility Wind Speed Wind Dir Waves Ship Positions

Marauder

Owner: Sortwell, Inc. dba AMNAV Maritime Services, Oakland, CA. More information available from US FCC via Universal Licensing System and Coast Guard Vessel Documentation Center.

Last reported at 2018-Apr-14 06:38 UTC. Time now 2018-Jul-20 02:53 UTC.
Position N 39°16' W 076°35'.
Warning: this ship's position is months out of date.

Length 32 m; draft 5 m.

Type: Tug. MMSI: 366998520.

Date/timePositionNaut miles runAvg speedWind from/ knotsBaromVisibWave heightAir tempDewpointWater temp
2018-Apr-14 06:38N 39°16' W 076°35'0 0.0
2018-Apr-14 06:29N 39°16' W 076°35'0 0.0
2018-Apr-14 06:00N 39°16' W 076°35'0 0.0
2018-Apr-14 05:29N 39°16' W 076°35'0 0.0
2018-Apr-14 05:00N 39°16' W 076°35'0 0.0
2018-Apr-14 04:30N 39°16' W 076°35'0 0.0
2018-Apr-14 04:00N 39°16' W 076°35'0 0.0
2018-Apr-14 03:30N 39°16' W 076°35'0 0.0
2018-Apr-14 03:00N 39°16' W 076°35'0 0.0
2018-Apr-14 02:30N 39°16' W 076°35'0 0.0
2018-Apr-14 02:00N 39°16' W 076°35'0 0.0
2018-Apr-14 01:30N 39°16' W 076°35'0 0.0
2018-Apr-14 01:00N 39°16' W 076°35'0 0.0
2018-Apr-14 00:30N 39°16' W 076°35'0 0.0
2018-Apr-14 00:00N 39°16' W 076°35'0 0.0
2018-Apr-13 23:30N 39°16' W 076°35'0 0.0
2018-Apr-13 23:00N 39°16' W 076°35'0 0.0
2018-Apr-13 22:30N 39°16' W 076°35'0 0.0
2018-Apr-13 22:00N 39°16' W 076°35'0 0.0
2018-Apr-13 21:30N 39°16' W 076°35'0 0.0
2018-Apr-13 21:00N 39°16' W 076°35'0 0.0
2018-Apr-13 20:30N 39°16' W 076°35'0 0.0
2018-Apr-13 20:00N 39°16' W 076°35'0 0.0
2018-Apr-13 19:30N 39°16' W 076°35'0 0.0
2018-Apr-13 19:00N 39°16' W 076°35'0 0.0
2018-Apr-13 18:30N 39°16' W 076°35'0 0.0
2018-Apr-13 18:00N 39°16' W 076°35'0 0.0
2018-Apr-13 17:30N 39°16' W 076°35'0 0.0
2018-Apr-13 17:00N 39°16' W 076°35'0 0.0
2018-Apr-13 16:30N 39°16' W 076°35'0 0.0
2018-Apr-13 16:00N 39°16' W 076°35'0 0.0
2018-Apr-13 15:30N 39°16' W 076°35'0 0.0
2018-Apr-13 15:00N 39°16' W 076°35'0 0.0
2018-Apr-13 14:30N 39°16' W 076°35'0 0.0
2018-Apr-13 14:00N 39°16' W 076°35'0 0.0
2018-Apr-13 13:30N 39°16' W 076°35'0 0.0
2018-Apr-13 13:00N 39°16' W 076°35'0 0.0
2018-Apr-13 12:30N 39°16' W 076°35'0 0.0
2018-Apr-13 12:00N 39°16' W 076°35'0 0.0
2018-Apr-13 11:30N 39°16' W 076°35'0 0.0
2018-Apr-13 11:00N 39°16' W 076°35'0 0.0
2018-Apr-13 10:30N 39°16' W 076°35'0 0.0
2018-Apr-13 10:00N 39°16' W 076°35'0 0.0
2018-Apr-13 09:30N 39°16' W 076°35'0 0.0
2018-Apr-13 09:00N 39°16' W 076°35'0 0.0
2018-Apr-13 08:30N 39°16' W 076°35'0 0.0
2018-Apr-13 08:00N 39°16' W 076°35'0 0.0
2018-Apr-13 07:30N 39°16' W 076°35'0 0.0
2018-Apr-13 07:00N 39°16' W 076°35'0 0.0
2018-Apr-13 06:30N 39°16' W 076°35'0 0.0
2018-Apr-13 06:00N 39°16' W 076°35'0 0.0
2018-Apr-13 05:29N 39°16' W 076°35'0 0.0
2018-Apr-13 05:00N 39°16' W 076°35'0 0.0
2018-Apr-13 04:30N 39°16' W 076°35'0 0.0
2018-Apr-13 04:00N 39°16' W 076°35'0 0.0
2018-Apr-13 03:30N 39°16' W 076°35'0 0.0
2018-Apr-13 03:00N 39°16' W 076°35'0 0.0
2018-Apr-13 02:30N 39°16' W 076°35'0 0.0
2018-Apr-13 02:00N 39°16' W 076°35'0 0.0
2018-Apr-13 01:30N 39°16' W 076°35'0 0.0
2018-Apr-13 01:00N 39°16' W 076°35'0 0.0
2018-Apr-13 00:30N 39°16' W 076°35'0 0.0
2018-Apr-13 00:00N 39°16' W 076°35'0 0.0
2018-Apr-12 23:30N 39°16' W 076°35'0 0.0
2018-Apr-12 23:00N 39°16' W 076°35'0 0.0
2018-Apr-12 22:30N 39°16' W 076°35'4 5.9
2018-Apr-12 21:52N 39°13' W 076°32'3 7.1
2018-Apr-12 21:30N 39°12' W 076°29'1 1.2
2018-Apr-12 20:34N 39°12' W 076°30'1 6.0
2018-Apr-12 20:27N 39°12' W 076°31'3 6.8
2018-Apr-12 19:59N 39°15' W 076°34'1 1.4
2018-Apr-12 19:25N 39°16' W 076°34'0 0.7
2018-Apr-12 19:00N 39°16' W 076°34'1 1.3
2018-Apr-12 18:30N 39°16' W 076°35'0 0.0
2018-Apr-12 18:00N 39°16' W 076°35'0 0.0
2018-Apr-12 17:30N 39°16' W 076°35'0 0.0
2018-Apr-12 17:00N 39°16' W 076°35'0 0.0
2018-Apr-12 16:30N 39°16' W 076°35'0 0.0
2018-Apr-12 16:00N 39°16' W 076°35'0 0.0
2018-Apr-12 15:30N 39°16' W 076°35'0 0.0
2018-Apr-12 15:00N 39°16' W 076°35'0 0.0
2018-Apr-12 14:30N 39°16' W 076°35'0 0.0
2018-Apr-12 13:57N 39°16' W 076°35'0 0.0
2018-Apr-12 13:30N 39°16' W 076°35'0 0.0
2018-Apr-12 13:00N 39°16' W 076°35'0 0.0
2018-Apr-12 12:28N 39°16' W 076°35'0 0.0
2018-Apr-12 11:59N 39°16' W 076°35'0 0.0
2018-Apr-12 11:30N 39°16' W 076°35'0 0.0
2018-Apr-12 10:59N 39°16' W 076°35'0 0.0
2018-Apr-12 10:30N 39°16' W 076°35'0 0.0
2018-Apr-12 09:59N 39°16' W 076°35'0 0.0
2018-Apr-12 09:30N 39°16' W 076°35'0 0.0
2018-Apr-12 09:00N 39°16' W 076°35'0 0.0
2018-Apr-12 08:29N 39°16' W 076°35'0 0.0
2018-Apr-12 08:00N 39°16' W 076°35'0 0.0
2018-Apr-12 07:30N 39°16' W 076°35'0 0.0
2018-Apr-12 07:00N 39°16' W 076°35'0 0.0
2018-Apr-12 06:24N 39°16' W 076°35'0 0.0
2018-Apr-12 05:59N 39°16' W 076°35'0 0.0
2018-Apr-12 05:30N 39°16' W 076°35'0 0.0
2018-Apr-12 05:00N 39°16' W 076°35'0 0.0
2018-Apr-12 04:30N 39°16' W 076°35'0 0.0
2018-Apr-12 04:00N 39°16' W 076°35'0 0.0
2018-Apr-12 03:30N 39°16' W 076°35'0 0.0
2018-Apr-12 03:00N 39°16' W 076°35'0 0.0
2018-Apr-12 02:29N 39°16' W 076°35'0 0.0
2018-Apr-12 02:00N 39°16' W 076°35'0 0.0
2018-Apr-12 01:30N 39°16' W 076°35'0 0.0
2018-Apr-12 01:00N 39°16' W 076°35'0 0.0
2018-Apr-12 00:30N 39°16' W 076°35'0 0.0
2018-Apr-12 00:00N 39°16' W 076°35'0 0.0
2018-Apr-11 23:30N 39°16' W 076°35'0 0.0
2018-Apr-11 23:00N 39°16' W 076°35'0 0.0
2018-Apr-11 22:30N 39°16' W 076°35'0 0.0
2018-Apr-11 22:00N 39°16' W 076°35'0 0.0
2018-Apr-11 21:30N 39°16' W 076°35'0 0.0
2018-Apr-11 21:00N 39°16' W 076°35'0 0.0
2018-Apr-11 20:30N 39°16' W 076°35'0 0.0
2018-Apr-11 20:00N 39°16' W 076°35'0 0.0
2018-Apr-11 19:30N 39°16' W 076°35'0 0.0
2018-Apr-11 19:00N 39°16' W 076°35'0 0.0
2018-Apr-11 18:30N 39°16' W 076°35'0 0.0
2018-Apr-11 18:00N 39°16' W 076°35'0 0.0
2018-Apr-11 17:30N 39°16' W 076°35'0 0.0
2018-Apr-11 17:00N 39°16' W 076°35'0 0.0
2018-Apr-11 16:30N 39°16' W 076°35'0 0.0
2018-Apr-11 16:00N 39°16' W 076°35'0 0.0
2018-Apr-11 15:30N 39°16' W 076°35'0 0.0
2018-Apr-11 15:00N 39°16' W 076°35'0 0.0
2018-Apr-11 14:30N 39°16' W 076°35'0 0.0
2018-Apr-11 14:00N 39°16' W 076°35'0 0.0
2018-Apr-11 13:30N 39°16' W 076°35'0 0.0
2018-Apr-11 13:00N 39°16' W 076°35'0 0.0
2018-Apr-11 12:30N 39°16' W 076°35'0 0.0
2018-Apr-11 12:00N 39°16' W 076°35'0 0.0
2018-Apr-11 11:28N 39°16' W 076°35'0 0.0
2018-Apr-11 11:00N 39°16' W 076°35'0 0.0
2018-Apr-11 10:30N 39°16' W 076°35'0 0.0
2018-Apr-11 10:00N 39°16' W 076°35'0 0.0
2018-Apr-11 09:30N 39°16' W 076°35'0 0.0
2018-Apr-11 09:00N 39°16' W 076°35'0 0.0
2018-Apr-11 08:30N 39°16' W 076°35'0 0.0
2018-Apr-11 08:00N 39°16' W 076°35'0 0.0
2018-Apr-11 07:30N 39°16' W 076°35'0 0.0
2018-Apr-11 07:00N 39°16' W 076°35'0 0.0
2018-Apr-11 06:30N 39°16' W 076°35'0 0.0
2018-Apr-11 06:00N 39°16' W 076°35'0 0.0
2018-Apr-11 05:30N 39°16' W 076°35'0 0.0
2018-Apr-11 05:00N 39°16' W 076°35'0 0.0
2018-Apr-11 04:30N 39°16' W 076°35'0 0.0
2018-Apr-11 04:00N 39°16' W 076°35'0 0.0
2018-Apr-11 03:30N 39°16' W 076°35'0 0.0
2018-Apr-11 03:00N 39°16' W 076°35'0 0.0
2018-Apr-11 02:30N 39°16' W 076°35'0 0.0
2018-Apr-11 02:00N 39°16' W 076°35'0 0.0
2018-Apr-11 01:30N 39°16' W 076°35'0 0.0
2018-Apr-11 01:00N 39°16' W 076°35'0 0.0
2018-Apr-11 00:30N 39°16' W 076°35'0 0.0
2018-Apr-11 00:00N 39°16' W 076°35'0 0.0
2018-Apr-10 23:30N 39°16' W 076°35'0 0.0
2018-Apr-10 22:59N 39°16' W 076°35'0 0.0
2018-Apr-10 22:30N 39°16' W 076°35'0 0.0
2018-Apr-10 22:00N 39°16' W 076°35'0 0.0
2018-Apr-10 21:30N 39°16' W 076°35'0 0.0
2018-Apr-10 21:00N 39°16' W 076°35'0 0.0
2018-Apr-10 20:30N 39°16' W 076°35'0 0.0
2018-Apr-10 20:00N 39°16' W 076°35'0 0.0
2018-Apr-10 19:30N 39°16' W 076°35'0 0.0
2018-Apr-10 19:00N 39°16' W 076°35'0 0.0
2018-Apr-10 18:30N 39°16' W 076°35'0 0.0
2018-Apr-10 18:00N 39°16' W 076°35'0 0.0
2018-Apr-10 17:30N 39°16' W 076°35'0 0.0
2018-Apr-10 17:00N 39°16' W 076°35'0 0.0
2018-Apr-10 16:30N 39°16' W 076°35'0 0.0
2018-Apr-10 16:00N 39°16' W 076°35'0 0.0
2018-Apr-10 15:30N 39°16' W 076°35'0 0.0
2018-Apr-10 15:00N 39°16' W 076°35'0 0.0
2018-Apr-10 14:30N 39°16' W 076°35'0 0.0
2018-Apr-10 14:00N 39°16' W 076°35'0 0.0
2018-Apr-10 13:30N 39°16' W 076°35'0 0.0
2018-Apr-10 13:00N 39°16' W 076°35'0 0.0
2018-Apr-10 12:30N 39°16' W 076°35'0 0.0
2018-Apr-10 12:00N 39°16' W 076°35'0 0.0
2018-Apr-10 11:30N 39°16' W 076°35'0 0.0
2018-Apr-10 11:00N 39°16' W 076°35'0 0.0
2018-Apr-10 10:30N 39°16' W 076°35'0 0.0
2018-Apr-10 10:00N 39°16' W 076°35'0 0.0
2018-Apr-10 09:30N 39°16' W 076°35'0 0.0
2018-Apr-10 09:00N 39°16' W 076°35'0 0.0
2018-Apr-10 08:30N 39°16' W 076°35'0 0.0
2018-Apr-10 08:00N 39°16' W 076°35'0 0.0
2018-Apr-10 07:30N 39°16' W 076°35'0 0.0
2018-Apr-10 07:00N 39°16' W 076°35'0 0.0
2018-Apr-10 06:29N 39°16' W 076°35'0 0.0
2018-Apr-10 05:57N 39°16' W 076°35'0 0.0
2018-Apr-10 05:30N 39°16' W 076°35'0 0.0
2018-Apr-10 05:00N 39°16' W 076°35'0 0.0
2018-Apr-10 04:30N 39°16' W 076°35'0 0.0
2018-Apr-10 04:00N 39°16' W 076°35'0 0.0
2018-Apr-10 03:30N 39°16' W 076°35'0 0.0
2018-Apr-10 02:59N 39°16' W 076°35'0 0.0
2018-Apr-10 02:30N 39°16' W 076°35'0 0.0
2018-Apr-10 02:00N 39°16' W 076°35'0 0.0
2018-Apr-10 01:30N 39°16' W 076°35'0 0.0
2018-Apr-10 01:00N 39°16' W 076°35'0 0.0
2018-Apr-10 00:30N 39°16' W 076°35'0 0.0
2018-Apr-10 00:00N 39°16' W 076°35'0 0.0
2018-Apr-09 23:30N 39°16' W 076°35'4 5.4
2018-Apr-09 22:43N 39°13' W 076°32'2 1.5
2018-Apr-09 21:24N 39°12' W 076°29'3 3.0
2018-Apr-09 20:16N 39°14' W 076°33'2 8.5
2018-Apr-09 20:00N 39°16' W 076°34'1 1.2
2018-Apr-09 19:30N 39°16' W 076°35'0 0.0
2018-Apr-09 19:00N 39°16' W 076°35'0 0.0
2018-Apr-09 18:30N 39°16' W 076°35'0 0.0
2018-Apr-09 17:58N 39°16' W 076°35'0 0.0
2018-Apr-09 17:30N 39°16' W 076°35'0 0.0
2018-Apr-09 17:00N 39°16' W 076°35'0 0.0
2018-Apr-09 16:29N 39°16' W 076°35'0 0.0
2018-Apr-09 16:00N 39°16' W 076°35'0 0.0
2018-Apr-09 15:30N 39°16' W 076°35'0 0.0
2018-Apr-09 15:00N 39°16' W 076°35'0 0.0
2018-Apr-09 14:30N 39°16' W 076°35'0 0.0
2018-Apr-09 14:00N 39°16' W 076°35'0 0.0
2018-Apr-09 13:30N 39°16' W 076°35'0 0.0
2018-Apr-09 13:00N 39°16' W 076°35'0 0.0
2018-Apr-09 12:30N 39°16' W 076°35'0 0.0
2018-Apr-09 12:00N 39°16' W 076°35'0 0.0
2018-Apr-09 11:30N 39°16' W 076°35'0 0.0
2018-Apr-09 11:00N 39°16' W 076°35'0 0.0
2018-Apr-09 10:30N 39°16' W 076°35'0 0.0
2018-Apr-09 10:00N 39°16' W 076°35'0 0.0
2018-Apr-09 09:30N 39°16' W 076°35'0 0.0
2018-Apr-09 09:00N 39°16' W 076°35'0 0.0
2018-Apr-09 08:30N 39°16' W 076°35'0 0.0
2018-Apr-09 08:00N 39°16' W 076°35'0 0.0
2018-Apr-09 07:30N 39°16' W 076°35'0 0.0
2018-Apr-09 07:00N 39°16' W 076°35'0 0.0
2018-Apr-09 06:30N 39°16' W 076°35'0 0.0
2018-Apr-09 06:00N 39°16' W 076°35'0 0.0
2018-Apr-09 05:30N 39°16' W 076°35'0 0.0
2018-Apr-09 05:00N 39°16' W 076°35'0 0.0
2018-Apr-09 04:30N 39°16' W 076°35'0 0.0
2018-Apr-09 04:00N 39°16' W 076°35'0 0.0
2018-Apr-09 03:30N 39°16' W 076°35'0 0.0
2018-Apr-09 03:00N 39°16' W 076°35'0 0.0
2018-Apr-09 02:30N 39°16' W 076°35'0 0.0
2018-Apr-09 02:00N 39°16' W 076°35'0 0.0
2018-Apr-09 01:30N 39°16' W 076°35'0 0.0
2018-Apr-09 01:00N 39°16' W 076°35'0 0.0
2018-Apr-09 00:30N 39°16' W 076°35'0 0.0
2018-Apr-09 00:00N 39°16' W 076°35'0 0.0
2018-Apr-08 23:30N 39°16' W 076°35'0 0.0
2018-Apr-08 23:00N 39°16' W 076°35'0 0.0
2018-Apr-08 22:30N 39°16' W 076°35'0 0.0
2018-Apr-08 22:00N 39°16' W 076°35'0 0.0
2018-Apr-08 21:30N 39°16' W 076°35'0 0.0
2018-Apr-08 21:00N 39°16' W 076°35'0 0.0
2018-Apr-08 20:30N 39°16' W 076°35'0 0.0
2018-Apr-08 20:00N 39°16' W 076°35'0 0.0
2018-Apr-08 19:30N 39°16' W 076°35'0 0.0
2018-Apr-08 19:00N 39°16' W 076°35'0 0.0
2018-Apr-08 18:30N 39°16' W 076°35'0 0.0
2018-Apr-08 18:00N 39°16' W 076°35'0 0.0
2018-Apr-08 17:30N 39°16' W 076°35'0 0.0
2018-Apr-08 17:00N 39°16' W 076°35'0 0.0
2018-Apr-08 16:30N 39°16' W 076°35'0 0.0
2018-Apr-08 16:00N 39°16' W 076°35'0 0.0
2018-Apr-08 15:30N 39°16' W 076°35'0 0.0
2018-Apr-08 15:00N 39°16' W 076°35'0 0.0
2018-Apr-08 14:30N 39°16' W 076°35'0 0.0
2018-Apr-08 14:00N 39°16' W 076°35'0 0.0
2018-Apr-08 13:30N 39°16' W 076°35'0 0.0
2018-Apr-08 13:00N 39°16' W 076°35'0 0.0
2018-Apr-08 12:30N 39°16' W 076°35'0 0.0
2018-Apr-08 12:00N 39°16' W 076°35'0 0.0
2018-Apr-08 11:30N 39°16' W 076°35'0 0.0
2018-Apr-08 11:00N 39°16' W 076°35'0 0.0
2018-Apr-08 10:30N 39°16' W 076°35'0 0.0
2018-Apr-08 09:59N 39°16' W 076°35'0 0.0
2018-Apr-08 09:30N 39°16' W 076°35'0 0.0
2018-Apr-08 09:00N 39°16' W 076°35'0 0.0
2018-Apr-08 08:30N 39°16' W 076°35'0 0.0
2018-Apr-08 08:00N 39°16' W 076°35'0 0.0
2018-Apr-08 07:30N 39°16' W 076°35'0 0.0
2018-Apr-08 07:00N 39°16' W 076°35'0 0.0
2018-Apr-08 06:30N 39°16' W 076°35'0 0.0
2018-Apr-08 06:00N 39°16' W 076°35'0 0.0
2018-Apr-08 05:30N 39°16' W 076°35'0 0.0
2018-Apr-08 05:00N 39°16' W 076°35'0 0.0
2018-Apr-08 04:30N 39°16' W 076°35'0 0.0
2018-Apr-08 04:00N 39°16' W 076°35'0 0.0
2018-Apr-08 03:30N 39°16' W 076°35'0 0.0
2018-Apr-08 03:00N 39°16' W 076°35'0 0.0
2018-Apr-08 02:30N 39°16' W 076°35'0 0.0
2018-Apr-08 02:00N 39°16' W 076°35'0 0.0
2018-Apr-08 01:30N 39°16' W 076°35'0 0.0
2018-Apr-08 01:00N 39°16' W 076°35'0 0.0
2018-Apr-08 00:30N 39°16' W 076°35'0 0.0
2018-Apr-08 00:00N 39°16' W 076°35'0 0.0
2018-Apr-07 23:30N 39°16' W 076°35'0 0.0
2018-Apr-07 23:00N 39°16' W 076°35'0 0.0
2018-Apr-07 22:30N 39°16' W 076°35'0 0.0
2018-Apr-07 22:00N 39°16' W 076°35'0 0.0
2018-Apr-07 21:30N 39°16' W 076°35'0 0.0
2018-Apr-07 20:58N 39°16' W 076°35'0 0.0
2018-Apr-07 20:30N 39°16' W 076°35'0 0.0
2018-Apr-07 20:00N 39°16' W 076°35'0 0.0
2018-Apr-07 19:30N 39°16' W 076°35'0 0.0
2018-Apr-07 19:00N 39°16' W 076°35'0 0.0
2018-Apr-07 18:30N 39°16' W 076°35'0 0.0
2018-Apr-07 18:00N 39°16' W 076°35'0 0.0
2018-Apr-07 17:30N 39°16' W 076°35'0 0.0
2018-Apr-07 17:00N 39°16' W 076°35'0 0.0
2018-Apr-07 16:30N 39°16' W 076°35'0 0.0
2018-Apr-07 16:00N 39°16' W 076°35'0 0.0
2018-Apr-07 15:30N 39°16' W 076°35'0 0.0
2018-Apr-07 15:00N 39°16' W 076°35'0 0.0
2018-Apr-07 14:30N 39°16' W 076°35'0 0.0
2018-Apr-07 14:00N 39°16' W 076°35'0 0.0
2018-Apr-07 13:30N 39°16' W 076°35'0 0.0
2018-Apr-07 13:00N 39°16' W 076°35'0 0.0
2018-Apr-07 12:29N 39°16' W 076°35'0 0.0
2018-Apr-07 12:00N 39°16' W 076°35'0 0.0
2018-Apr-07 11:30N 39°16' W 076°35'0 0.0
2018-Apr-07 11:00N 39°16' W 076°35'0 0.0
2018-Apr-07 10:30N 39°16' W 076°35'0 0.0
2018-Apr-07 10:00N 39°16' W 076°35'0 0.0
2018-Apr-07 09:30N 39°16' W 076°35'0 0.0
2018-Apr-07 09:00N 39°16' W 076°35'0 0.0
2018-Apr-07 08:30N 39°16' W 076°35'0 0.0
2018-Apr-07 08:00N 39°16' W 076°35'0 0.0
2018-Apr-07 07:30N 39°16' W 076°35'0 0.0
2018-Apr-07 07:00N 39°16' W 076°35'0 0.0
2018-Apr-07 06:30N 39°16' W 076°35'0 0.0
2018-Apr-07 06:00N 39°16' W 076°35'0 0.0
2018-Apr-07 05:30N 39°16' W 076°35'0 0.0
2018-Apr-07 05:00N 39°16' W 076°35'0 0.0
2018-Apr-07 04:30N 39°16' W 076°35'0 0.0
2018-Apr-07 04:00N 39°16' W 076°35'0 0.0
2018-Apr-07 03:30N 39°16' W 076°35'0 0.0
2018-Apr-07 03:00N 39°16' W 076°35'0 0.0
2018-Apr-07 02:30N 39°16' W 076°35'0 0.0
2018-Apr-07 02:00N 39°16' W 076°35'0 0.0
2018-Apr-07 01:30N 39°16' W 076°35'0 0.0
2018-Apr-07 01:00N 39°16' W 076°35'0 0.0
2018-Apr-07 00:30N 39°16' W 076°35'0 0.0
2018-Apr-07 00:00N 39°16' W 076°35'0 0.0
2018-Apr-06 23:30N 39°16' W 076°35'0 0.0
2018-Apr-06 23:00N 39°16' W 076°35'0 0.0
2018-Apr-06 22:30N 39°16' W 076°35'0 0.0
2018-Apr-06 22:00N 39°16' W 076°35'0 0.0
2018-Apr-06 21:30N 39°16' W 076°35'0 0.0
2018-Apr-06 21:00N 39°16' W 076°35'0 0.0
2018-Apr-06 20:30N 39°16' W 076°35'0 0.0
2018-Apr-06 20:00N 39°16' W 076°35'0 0.0
2018-Apr-06 19:30N 39°16' W 076°35'0 0.0
2018-Apr-06 19:00N 39°16' W 076°35'0 0.0
2018-Apr-06 18:30N 39°16' W 076°35'0 0.0
2018-Apr-06 18:00N 39°16' W 076°35'0 0.0
2018-Apr-06 17:30N 39°16' W 076°35'0 0.0
2018-Apr-06 17:00N 39°16' W 076°35'0 0.0
2018-Apr-06 16:30N 39°16' W 076°35'0 0.0
2018-Apr-06 16:00N 39°16' W 076°35'0 0.0
2018-Apr-06 15:30N 39°16' W 076°35'0 0.0
2018-Apr-06 15:00N 39°16' W 076°35'0 0.0
2018-Apr-06 14:30N 39°16' W 076°35'0 0.0
2018-Apr-06 14:00N 39°16' W 076°35'0 0.0
2018-Apr-06 13:30N 39°16' W 076°35'0 0.0
2018-Apr-06 13:00N 39°16' W 076°35'0 0.0
2018-Apr-06 12:30N 39°16' W 076°35'0 0.0
2018-Apr-06 12:00N 39°16' W 076°35'0 0.0
2018-Apr-06 11:30N 39°16' W 076°35'0 0.0
2018-Apr-06 11:00N 39°16' W 076°35'0 0.0
2018-Apr-06 10:30N 39°16' W 076°35'0 0.0
2018-Apr-06 10:00N 39°16' W 076°35'0 0.0
2018-Apr-06 09:30N 39°16' W 076°35'0 0.0
2018-Apr-06 09:00N 39°16' W 076°35'0 0.0
2018-Apr-06 08:30N 39°16' W 076°35'0 0.0
2018-Apr-06 08:00N 39°16' W 076°35'0 0.0
2018-Apr-06 07:30N 39°16' W 076°35'0 0.0
2018-Apr-06 07:00N 39°16' W 076°35'0 0.0
2018-Apr-06 06:30N 39°16' W 076°35'0 0.0
2018-Apr-06 06:00N 39°16' W 076°35'0 0.1
2018-Apr-06 05:30N 39°16' W 076°35'0 0.1
2018-Apr-06 05:00N 39°16' W 076°35'0 0.0
2018-Apr-06 04:30N 39°16' W 076°35'0 0.0
2018-Apr-06 04:00N 39°16' W 076°35'0 0.0
2018-Apr-06 03:29N 39°16' W 076°35'0 0.0
2018-Apr-06 03:00N 39°16' W 076°35'0 0.0
2018-Apr-06 02:30N 39°16' W 076°35'0 0.0
2018-Apr-06 02:00N 39°16' W 076°35'0 0.0
2018-Apr-06 01:30N 39°16' W 076°35'0 0.0
2018-Apr-06 01:00N 39°16' W 076°35'0 0.0
2018-Apr-06 00:30N 39°16' W 076°35'0 0.0
2018-Apr-06 00:00N 39°16' W 076°35'0 0.0
2018-Apr-05 23:30N 39°16' W 076°35'0 0.0
2018-Apr-05 23:00N 39°16' W 076°35'0 0.0
2018-Apr-05 22:30N 39°16' W 076°35'0 0.0
2018-Apr-05 21:59N 39°16' W 076°35'0 0.0
2018-Apr-05 21:30N 39°16' W 076°35'0 0.0
2018-Apr-05 21:00N 39°16' W 076°35'0 0.0
2018-Apr-05 20:30N 39°16' W 076°35'0 0.0
2018-Apr-05 20:00N 39°16' W 076°35'0 0.0
2018-Apr-05 19:30N 39°16' W 076°35'0 0.0
2018-Apr-05 19:00N 39°16' W 076°35'0 0.0
2018-Apr-05 18:30N 39°16' W 076°35'0 0.0
2018-Apr-05 17:58N 39°16' W 076°35'0 0.0
2018-Apr-05 17:30N 39°16' W 076°35'0 0.0
2018-Apr-05 17:00N 39°16' W 076°35'0 0.0
2018-Apr-05 16:30N 39°16' W 076°35'0 0.0
2018-Apr-05 16:00N 39°16' W 076°35'0 0.0
2018-Apr-05 15:30N 39°16' W 076°35'0 0.0
2018-Apr-05 15:00N 39°16' W 076°35'0 0.0
2018-Apr-05 14:30N 39°16' W 076°35'0 0.0
2018-Apr-05 14:00N 39°16' W 076°35'0 0.0
2018-Apr-05 13:30N 39°16' W 076°35'0 0.0
2018-Apr-05 13:00N 39°16' W 076°35'0 0.0
2018-Apr-05 12:30N 39°16' W 076°35'0 0.0
2018-Apr-05 12:00N 39°16' W 076°35'0 0.0
2018-Apr-05 11:30N 39°16' W 076°35'0 0.0
2018-Apr-05 11:00N 39°16' W 076°35'0 0.0
2018-Apr-05 10:30N 39°16' W 076°35'0 0.0
2018-Apr-05 10:00N 39°16' W 076°35'0 0.0
2018-Apr-05 09:30N 39°16' W 076°35'0 0.0
2018-Apr-05 09:00N 39°16' W 076°35'0 0.0
2018-Apr-05 08:30N 39°16' W 076°35'0 0.0
2018-Apr-05 08:00N 39°16' W 076°35'0 0.0
2018-Apr-05 07:30N 39°16' W 076°35'0 0.0
2018-Apr-05 07:00N 39°16' W 076°35'0 0.0
2018-Apr-05 06:29N 39°16' W 076°35'0 0.0
2018-Apr-05 06:00N 39°16' W 076°35'0 0.0
2018-Apr-05 05:30N 39°16' W 076°35'0 0.0
2018-Apr-05 05:00N 39°16' W 076°35'0 0.0
2018-Apr-05 04:30N 39°16' W 076°35'0 0.0
2018-Apr-05 04:00N 39°16' W 076°35'0 0.0
2018-Apr-05 03:30N 39°16' W 076°35'0 0.0
2018-Apr-05 03:00N 39°16' W 076°35'0 0.0
2018-Apr-05 02:30N 39°16' W 076°35'0 0.0
2018-Apr-05 02:00N 39°16' W 076°35'0 0.0
2018-Apr-05 01:30N 39°16' W 076°35'0 0.0
2018-Apr-05 01:00N 39°16' W 076°35'0 0.0
2018-Apr-05 00:30N 39°16' W 076°35'0 0.0
2018-Apr-05 00:00N 39°16' W 076°35'0 0.0
2018-Apr-04 23:29N 39°16' W 076°35'0 0.0
2018-Apr-04 23:00N 39°16' W 076°35'0 0.0
2018-Apr-04 22:30N 39°16' W 076°35'0 0.0
2018-Apr-04 22:00N 39°16' W 076°35'0 0.0
2018-Apr-04 21:30N 39°16' W 076°35'0 0.0
2018-Apr-04 21:00N 39°16' W 076°35'0 0.0
2018-Apr-04 20:30N 39°16' W 076°35'0 0.0
2018-Apr-04 20:00N 39°16' W 076°35'0 0.0
2018-Apr-04 19:30N 39°16' W 076°35'0 0.0
2018-Apr-04 19:00N 39°16' W 076°35'0 0.0
2018-Apr-04 18:30N 39°16' W 076°35'0 0.0
2018-Apr-04 18:00N 39°16' W 076°35'0 0.0
2018-Apr-04 17:30N 39°16' W 076°35'0 0.0
2018-Apr-04 17:00N 39°16' W 076°35'0 0.0
2018-Apr-04 16:30N 39°16' W 076°35'0 0.0
2018-Apr-04 16:00N 39°16' W 076°35'0 0.0
2018-Apr-04 15:30N 39°16' W 076°35'0 0.0
2018-Apr-04 15:00N 39°16' W 076°35'0 0.0
2018-Apr-04 14:30N 39°16' W 076°35'0 0.0
2018-Apr-04 13:58N 39°16' W 076°35'0 0.0
2018-Apr-04 13:30N 39°16' W 076°35'0 0.0
2018-Apr-04 12:59N 39°16' W 076°35'0 0.2
2018-Apr-04 12:30N 39°16' W 076°35'0 0.5
2018-Apr-04 12:00N 39°16' W 076°35'0 0.5
2018-Apr-04 11:30N 39°16' W 076°35'0 0.1
2018-Apr-04 11:00N 39°16' W 076°35'0 0.0
2018-Apr-04 10:30N 39°16' W 076°35'0 0.0
2018-Apr-04 10:00N 39°16' W 076°35'0 0.0
2018-Apr-04 09:30N 39°16' W 076°35'0 0.0
2018-Apr-04 09:00N 39°16' W 076°35'0 0.0
2018-Apr-04 08:30N 39°16' W 076°35'0 0.0
2018-Apr-04 08:00N 39°16' W 076°35'0 0.0
2018-Apr-04 07:30N 39°16' W 076°35'0 0.0
2018-Apr-04 07:00N 39°16' W 076°35'  
Track history (hours):
 
Tides and Currents Weather Stations Pressure Air Temp Water Temp Dewpoint Dewpoint Depression Visibility Wind Speed Wind Dir Waves Ship Positions

Marauder

Owner: Sortwell, Inc. dba AMNAV Maritime Services, Oakland, CA. More information available from US FCC via Universal Licensing System and Coast Guard Vessel Documentation Center.

Last reported at 2018-Apr-14 06:38 UTC. Time now 2018-Jul-20 02:53 UTC.
Position N 39°16' W 076°35'.
Warning: this ship's position is months out of date.

Length 32 m; draft 5 m.

Type: Tug. MMSI: 366998520.

Date/timePositionNaut miles runAvg speedWind from/ knotsBaromVisibWave heightAir tempDewpointWater temp
2018-Apr-14 06:38N 39°16' W 076°35'0 0.0
2018-Apr-14 06:29N 39°16' W 076°35'0 0.0
2018-Apr-14 06:00N 39°16' W 076°35'0 0.0
2018-Apr-14 05:29N 39°16' W 076°35'0 0.0
2018-Apr-14 05:00N 39°16' W 076°35'0 0.0
2018-Apr-14 04:30N 39°16' W 076°35'0 0.0
2018-Apr-14 04:00N 39°16' W 076°35'0 0.0
2018-Apr-14 03:30N 39°16' W 076°35'0 0.0
2018-Apr-14 03:00N 39°16' W 076°35'0 0.0
2018-Apr-14 02:30N 39°16' W 076°35'0 0.0
2018-Apr-14 02:00N 39°16' W 076°35'0 0.0
2018-Apr-14 01:30N 39°16' W 076°35'0 0.0
2018-Apr-14 01:00N 39°16' W 076°35'0 0.0
2018-Apr-14 00:30N 39°16' W 076°35'0 0.0
2018-Apr-14 00:00N 39°16' W 076°35'0 0.0
2018-Apr-13 23:30N 39°16' W 076°35'0 0.0
2018-Apr-13 23:00N 39°16' W 076°35'0 0.0
2018-Apr-13 22:30N 39°16' W 076°35'0 0.0
2018-Apr-13 22:00N 39°16' W 076°35'0 0.0
2018-Apr-13 21:30N 39°16' W 076°35'0 0.0
2018-Apr-13 21:00N 39°16' W 076°35'0 0.0
2018-Apr-13 20:30N 39°16' W 076°35'0 0.0
2018-Apr-13 20:00N 39°16' W 076°35'0 0.0
2018-Apr-13 19:30N 39°16' W 076°35'0 0.0
2018-Apr-13 19:00N 39°16' W 076°35'0 0.0
2018-Apr-13 18:30N 39°16' W 076°35'0 0.0
2018-Apr-13 18:00N 39°16' W 076°35'0 0.0
2018-Apr-13 17:30N 39°16' W 076°35'0 0.0
2018-Apr-13 17:00N 39°16' W 076°35'0 0.0
2018-Apr-13 16:30N 39°16' W 076°35'0 0.0
2018-Apr-13 16:00N 39°16' W 076°35'0 0.0
2018-Apr-13 15:30N 39°16' W 076°35'0 0.0
2018-Apr-13 15:00N 39°16' W 076°35'0 0.0
2018-Apr-13 14:30N 39°16' W 076°35'0 0.0
2018-Apr-13 14:00N 39°16' W 076°35'0 0.0
2018-Apr-13 13:30N 39°16' W 076°35'0 0.0
2018-Apr-13 13:00N 39°16' W 076°35'0 0.0
2018-Apr-13 12:30N 39°16' W 076°35'0 0.0
2018-Apr-13 12:00N 39°16' W 076°35'0 0.0
2018-Apr-13 11:30N 39°16' W 076°35'0 0.0
2018-Apr-13 11:00N 39°16' W 076°35'0 0.0
2018-Apr-13 10:30N 39°16' W 076°35'0 0.0
2018-Apr-13 10:00N 39°16' W 076°35'0 0.0
2018-Apr-13 09:30N 39°16' W 076°35'0 0.0
2018-Apr-13 09:00N 39°16' W 076°35'0 0.0
2018-Apr-13 08:30N 39°16' W 076°35'0 0.0
2018-Apr-13 08:00N 39°16' W 076°35'0 0.0
2018-Apr-13 07:30N 39°16' W 076°35'0 0.0
2018-Apr-13 07:00N 39°16' W 076°35'0 0.0
2018-Apr-13 06:30N 39°16' W 076°35'0 0.0
2018-Apr-13 06:00N 39°16' W 076°35'0 0.0
2018-Apr-13 05:29N 39°16' W 076°35'0 0.0
2018-Apr-13 05:00N 39°16' W 076°35'0 0.0
2018-Apr-13 04:30N 39°16' W 076°35'0 0.0
2018-Apr-13 04:00N 39°16' W 076°35'0 0.0
2018-Apr-13 03:30N 39°16' W 076°35'0 0.0
2018-Apr-13 03:00N 39°16' W 076°35'0 0.0
2018-Apr-13 02:30N 39°16' W 076°35'0 0.0
2018-Apr-13 02:00N 39°16' W 076°35'0 0.0
2018-Apr-13 01:30N 39°16' W 076°35'0 0.0
2018-Apr-13 01:00N 39°16' W 076°35'0 0.0
2018-Apr-13 00:30N 39°16' W 076°35'0 0.0
2018-Apr-13 00:00N 39°16' W 076°35'0 0.0
2018-Apr-12 23:30N 39°16' W 076°35'0 0.0
2018-Apr-12 23:00N 39°16' W 076°35'0 0.0
2018-Apr-12 22:30N 39°16' W 076°35'4 5.9
2018-Apr-12 21:52N 39°13' W 076°32'3 7.1
2018-Apr-12 21:30N 39°12' W 076°29'1 1.2
2018-Apr-12 20:34N 39°12' W 076°30'1 6.0
2018-Apr-12 20:27N 39°12' W 076°31'3 6.8
2018-Apr-12 19:59N 39°15' W 076°34'1 1.4
2018-Apr-12 19:25N 39°16' W 076°34'0 0.7
2018-Apr-12 19:00N 39°16' W 076°34'1 1.3
2018-Apr-12 18:30N 39°16' W 076°35'0 0.0
2018-Apr-12 18:00N 39°16' W 076°35'0 0.0
2018-Apr-12 17:30N 39°16' W 076°35'0 0.0
2018-Apr-12 17:00N 39°16' W 076°35'0 0.0
2018-Apr-12 16:30N 39°16' W 076°35'0 0.0
2018-Apr-12 16:00N 39°16' W 076°35'0 0.0
2018-Apr-12 15:30N 39°16' W 076°35'0 0.0
2018-Apr-12 15:00N 39°16' W 076°35'0 0.0
2018-Apr-12 14:30N 39°16' W 076°35'0 0.0
2018-Apr-12 13:57N 39°16' W 076°35'0 0.0
2018-Apr-12 13:30N 39°16' W 076°35'0 0.0
2018-Apr-12 13:00N 39°16' W 076°35'0 0.0
2018-Apr-12 12:28N 39°16' W 076°35'0 0.0
2018-Apr-12 11:59N 39°16' W 076°35'0 0.0
2018-Apr-12 11:30N 39°16' W 076°35'0 0.0
2018-Apr-12 10:59N 39°16' W 076°35'0 0.0
2018-Apr-12 10:30N 39°16' W 076°35'0 0.0
2018-Apr-12 09:59N 39°16' W 076°35'0 0.0
2018-Apr-12 09:30N 39°16' W 076°35'0 0.0
2018-Apr-12 09:00N 39°16' W 076°35'0 0.0
2018-Apr-12 08:29N 39°16' W 076°35'0 0.0
2018-Apr-12 08:00N 39°16' W 076°35'0 0.0
2018-Apr-12 07:30N 39°16' W 076°35'0 0.0
2018-Apr-12 07:00N 39°16' W 076°35'0 0.0
2018-Apr-12 06:24N 39°16' W 076°35'0 0.0
2018-Apr-12 05:59N 39°16' W 076°35'0 0.0
2018-Apr-12 05:30N 39°16' W 076°35'0 0.0
2018-Apr-12 05:00N 39°16' W 076°35'0 0.0
2018-Apr-12 04:30N 39°16' W 076°35'0 0.0
2018-Apr-12 04:00N 39°16' W 076°35'0 0.0
2018-Apr-12 03:30N 39°16' W 076°35'0 0.0
2018-Apr-12 03:00N 39°16' W 076°35'0 0.0
2018-Apr-12 02:29N 39°16' W 076°35'0 0.0
2018-Apr-12 02:00N 39°16' W 076°35'0 0.0
2018-Apr-12 01:30N 39°16' W 076°35'0 0.0
2018-Apr-12 01:00N 39°16' W 076°35'0 0.0
2018-Apr-12 00:30N 39°16' W 076°35'0 0.0
2018-Apr-12 00:00N 39°16' W 076°35'0 0.0
2018-Apr-11 23:30N 39°16' W 076°35'0 0.0
2018-Apr-11 23:00N 39°16' W 076°35'0 0.0
2018-Apr-11 22:30N 39°16' W 076°35'0 0.0
2018-Apr-11 22:00N 39°16' W 076°35'0 0.0
2018-Apr-11 21:30N 39°16' W 076°35'0 0.0
2018-Apr-11 21:00N 39°16' W 076°35'0 0.0
2018-Apr-11 20:30N 39°16' W 076°35'0 0.0
2018-Apr-11 20:00N 39°16' W 076°35'0 0.0
2018-Apr-11 19:30N 39°16' W 076°35'0 0.0
2018-Apr-11 19:00N 39°16' W 076°35'0 0.0
2018-Apr-11 18:30N 39°16' W 076°35'0 0.0
2018-Apr-11 18:00N 39°16' W 076°35'0 0.0
2018-Apr-11 17:30N 39°16' W 076°35'0 0.0
2018-Apr-11 17:00N 39°16' W 076°35'0 0.0
2018-Apr-11 16:30N 39°16' W 076°35'0 0.0
2018-Apr-11 16:00N 39°16' W 076°35'0 0.0
2018-Apr-11 15:30N 39°16' W 076°35'0 0.0
2018-Apr-11 15:00N 39°16' W 076°35'0 0.0
2018-Apr-11 14:30N 39°16' W 076°35'0 0.0
2018-Apr-11 14:00N 39°16' W 076°35'0 0.0
2018-Apr-11 13:30N 39°16' W 076°35'0 0.0
2018-Apr-11 13:00N 39°16' W 076°35'0 0.0
2018-Apr-11 12:30N 39°16' W 076°35'0 0.0
2018-Apr-11 12:00N 39°16' W 076°35'0 0.0
2018-Apr-11 11:28N 39°16' W 076°35'0 0.0
2018-Apr-11 11:00N 39°16' W 076°35'0 0.0
2018-Apr-11 10:30N 39°16' W 076°35'0 0.0
2018-Apr-11 10:00N 39°16' W 076°35'0 0.0
2018-Apr-11 09:30N 39°16' W 076°35'0 0.0
2018-Apr-11 09:00N 39°16' W 076°35'0 0.0
2018-Apr-11 08:30N 39°16' W 076°35'0 0.0
2018-Apr-11 08:00N 39°16' W 076°35'0 0.0
2018-Apr-11 07:30N 39°16' W 076°35'0 0.0
2018-Apr-11 07:00N 39°16' W 076°35'0 0.0
2018-Apr-11 06:30N 39°16' W 076°35'0 0.0
2018-Apr-11 06:00N 39°16' W 076°35'0 0.0
2018-Apr-11 05:30N 39°16' W 076°35'0 0.0
2018-Apr-11 05:00N 39°16' W 076°35'0 0.0
2018-Apr-11 04:30N 39°16' W 076°35'0 0.0
2018-Apr-11 04:00N 39°16' W 076°35'0 0.0
2018-Apr-11 03:30N 39°16' W 076°35'0 0.0
2018-Apr-11 03:00N 39°16' W 076°35'0 0.0
2018-Apr-11 02:30N 39°16' W 076°35'0 0.0
2018-Apr-11 02:00N 39°16' W 076°35'0 0.0
2018-Apr-11 01:30N 39°16' W 076°35'0 0.0
2018-Apr-11 01:00N 39°16' W 076°35'0 0.0
2018-Apr-11 00:30N 39°16' W 076°35'0 0.0
2018-Apr-11 00:00N 39°16' W 076°35'0 0.0
2018-Apr-10 23:30N 39°16' W 076°35'0 0.0
2018-Apr-10 22:59N 39°16' W 076°35'0 0.0
2018-Apr-10 22:30N 39°16' W 076°35'0 0.0
2018-Apr-10 22:00N 39°16' W 076°35'0 0.0
2018-Apr-10 21:30N 39°16' W 076°35'0 0.0
2018-Apr-10 21:00N 39°16' W 076°35'0 0.0
2018-Apr-10 20:30N 39°16' W 076°35'0 0.0
2018-Apr-10 20:00N 39°16' W 076°35'0 0.0
2018-Apr-10 19:30N 39°16' W 076°35'0 0.0
2018-Apr-10 19:00N 39°16' W 076°35'0 0.0
2018-Apr-10 18:30N 39°16' W 076°35'0 0.0
2018-Apr-10 18:00N 39°16' W 076°35'0 0.0
2018-Apr-10 17:30N 39°16' W 076°35'0 0.0
2018-Apr-10 17:00N 39°16' W 076°35'0 0.0
2018-Apr-10 16:30N 39°16' W 076°35'0 0.0
2018-Apr-10 16:00N 39°16' W 076°35'0 0.0
2018-Apr-10 15:30N 39°16' W 076°35'0 0.0
2018-Apr-10 15:00N 39°16' W 076°35'0 0.0
2018-Apr-10 14:30N 39°16' W 076°35'0 0.0
2018-Apr-10 14:00N 39°16' W 076°35'0 0.0
2018-Apr-10 13:30N 39°16' W 076°35'0 0.0
2018-Apr-10 13:00N 39°16' W 076°35'0 0.0
2018-Apr-10 12:30N 39°16' W 076°35'0 0.0
2018-Apr-10 12:00N 39°16' W 076°35'0 0.0
2018-Apr-10 11:30N 39°16' W 076°35'0 0.0
2018-Apr-10 11:00N 39°16' W 076°35'0 0.0
2018-Apr-10 10:30N 39°16' W 076°35'0 0.0
2018-Apr-10 10:00N 39°16' W 076°35'0 0.0
2018-Apr-10 09:30N 39°16' W 076°35'0 0.0
2018-Apr-10 09:00N 39°16' W 076°35'0 0.0
2018-Apr-10 08:30N 39°16' W 076°35'0 0.0
2018-Apr-10 08:00N 39°16' W 076°35'0 0.0
2018-Apr-10 07:30N 39°16' W 076°35'0 0.0
2018-Apr-10 07:00N 39°16' W 076°35'0 0.0
2018-Apr-10 06:29N 39°16' W 076°35'0 0.0
2018-Apr-10 05:57N 39°16' W 076°35'0 0.0
2018-Apr-10 05:30N 39°16' W 076°35'0 0.0
2018-Apr-10 05:00N 39°16' W 076°35'0 0.0
2018-Apr-10 04:30N 39°16' W 076°35'0 0.0
2018-Apr-10 04:00N 39°16' W 076°35'0 0.0
2018-Apr-10 03:30N 39°16' W 076°35'0 0.0
2018-Apr-10 02:59N 39°16' W 076°35'0 0.0
2018-Apr-10 02:30N 39°16' W 076°35'0 0.0
2018-Apr-10 02:00N 39°16' W 076°35'0 0.0
2018-Apr-10 01:30N 39°16' W 076°35'0 0.0
2018-Apr-10 01:00N 39°16' W 076°35'0 0.0
2018-Apr-10 00:30N 39°16' W 076°35'0 0.0
2018-Apr-10 00:00N 39°16' W 076°35'0 0.0
2018-Apr-09 23:30N 39°16' W 076°35'4 5.4
2018-Apr-09 22:43N 39°13' W 076°32'2 1.5
2018-Apr-09 21:24N 39°12' W 076°29'3 3.0
2018-Apr-09 20:16N 39°14' W 076°33'2 8.5
2018-Apr-09 20:00N 39°16' W 076°34'1 1.2
2018-Apr-09 19:30N 39°16' W 076°35'0 0.0
2018-Apr-09 19:00N 39°16' W 076°35'0 0.0
2018-Apr-09 18:30N 39°16' W 076°35'0 0.0
2018-Apr-09 17:58N 39°16' W 076°35'0 0.0
2018-Apr-09 17:30N 39°16' W 076°35'0 0.0
2018-Apr-09 17:00N 39°16' W 076°35'0 0.0
2018-Apr-09 16:29N 39°16' W 076°35'0 0.0
2018-Apr-09 16:00N 39°16' W 076°35'0 0.0
2018-Apr-09 15:30N 39°16' W 076°35'0 0.0
2018-Apr-09 15:00N 39°16' W 076°35'0 0.0
2018-Apr-09 14:30N 39°16' W 076°35'0 0.0
2018-Apr-09 14:00N 39°16' W 076°35'0 0.0
2018-Apr-09 13:30N 39°16' W 076°35'0 0.0
2018-Apr-09 13:00N 39°16' W 076°35'0 0.0
2018-Apr-09 12:30N 39°16' W 076°35'0 0.0
2018-Apr-09 12:00N 39°16' W 076°35'0 0.0
2018-Apr-09 11:30N 39°16' W 076°35'0 0.0
2018-Apr-09 11:00N 39°16' W 076°35'0 0.0
2018-Apr-09 10:30N 39°16' W 076°35'0 0.0
2018-Apr-09 10:00N 39°16' W 076°35'0 0.0
2018-Apr-09 09:30N 39°16' W 076°35'0 0.0
2018-Apr-09 09:00N 39°16' W 076°35'0 0.0
2018-Apr-09 08:30N 39°16' W 076°35'0 0.0
2018-Apr-09 08:00N 39°16' W 076°35'0 0.0
2018-Apr-09 07:30N 39°16' W 076°35'0 0.0
2018-Apr-09 07:00N 39°16' W 076°35'0 0.0
2018-Apr-09 06:30N 39°16' W 076°35'0 0.0
2018-Apr-09 06:00N 39°16' W 076°35'0 0.0
2018-Apr-09 05:30N 39°16' W 076°35'0 0.0
2018-Apr-09 05:00N 39°16' W 076°35'0 0.0
2018-Apr-09 04:30N 39°16' W 076°35'0 0.0
2018-Apr-09 04:00N 39°16' W 076°35'0 0.0
2018-Apr-09 03:30N 39°16' W 076°35'0 0.0
2018-Apr-09 03:00N 39°16' W 076°35'0 0.0
2018-Apr-09 02:30N 39°16' W 076°35'0 0.0
2018-Apr-09 02:00N 39°16' W 076°35'0 0.0
2018-Apr-09 01:30N 39°16' W 076°35'0 0.0
2018-Apr-09 01:00N 39°16' W 076°35'0 0.0
2018-Apr-09 00:30N 39°16' W 076°35'0 0.0
2018-Apr-09 00:00N 39°16' W 076°35'0 0.0
2018-Apr-08 23:30N 39°16' W 076°35'0 0.0
2018-Apr-08 23:00N 39°16' W 076°35'0 0.0
2018-Apr-08 22:30N 39°16' W 076°35'0 0.0
2018-Apr-08 22:00N 39°16' W 076°35'0 0.0
2018-Apr-08 21:30N 39°16' W 076°35'0 0.0
2018-Apr-08 21:00N 39°16' W 076°35'0 0.0
2018-Apr-08 20:30N 39°16' W 076°35'0 0.0
2018-Apr-08 20:00N 39°16' W 076°35'0 0.0
2018-Apr-08 19:30N 39°16' W 076°35'0 0.0
2018-Apr-08 19:00N 39°16' W 076°35'0 0.0
2018-Apr-08 18:30N 39°16' W 076°35'0 0.0
2018-Apr-08 18:00N 39°16' W 076°35'0 0.0
2018-Apr-08 17:30N 39°16' W 076°35'0 0.0
2018-Apr-08 17:00N 39°16' W 076°35'0 0.0
2018-Apr-08 16:30N 39°16' W 076°35'0 0.0
2018-Apr-08 16:00N 39°16' W 076°35'0 0.0
2018-Apr-08 15:30N 39°16' W 076°35'0 0.0
2018-Apr-08 15:00N 39°16' W 076°35'0 0.0
2018-Apr-08 14:30N 39°16' W 076°35'0 0.0
2018-Apr-08 14:00N 39°16' W 076°35'0 0.0
2018-Apr-08 13:30N 39°16' W 076°35'0 0.0
2018-Apr-08 13:00N 39°16' W 076°35'0 0.0
2018-Apr-08 12:30N 39°16' W 076°35'0 0.0
2018-Apr-08 12:00N 39°16' W 076°35'0 0.0
2018-Apr-08 11:30N 39°16' W 076°35'0 0.0
2018-Apr-08 11:00N 39°16' W 076°35'0 0.0
2018-Apr-08 10:30N 39°16' W 076°35'0 0.0
2018-Apr-08 09:59N 39°16' W 076°35'0 0.0
2018-Apr-08 09:30N 39°16' W 076°35'0 0.0
2018-Apr-08 09:00N 39°16' W 076°35'0 0.0
2018-Apr-08 08:30N 39°16' W 076°35'0 0.0
2018-Apr-08 08:00N 39°16' W 076°35'0 0.0
2018-Apr-08 07:30N 39°16' W 076°35'0 0.0
2018-Apr-08 07:00N 39°16' W 076°35'0 0.0
2018-Apr-08 06:30N 39°16' W 076°35'0 0.0
2018-Apr-08 06:00N 39°16' W 076°35'0 0.0
2018-Apr-08 05:30N 39°16' W 076°35'0 0.0
2018-Apr-08 05:00N 39°16' W 076°35'0 0.0
2018-Apr-08 04:30N 39°16' W 076°35'0 0.0
2018-Apr-08 04:00N 39°16' W 076°35'0 0.0
2018-Apr-08 03:30N 39°16' W 076°35'0 0.0
2018-Apr-08 03:00N 39°16' W 076°35'0 0.0
2018-Apr-08 02:30N 39°16' W 076°35'0 0.0
2018-Apr-08 02:00N 39°16' W 076°35'0 0.0
2018-Apr-08 01:30N 39°16' W 076°35'0 0.0
2018-Apr-08 01:00N 39°16' W 076°35'0 0.0
2018-Apr-08 00:30N 39°16' W 076°35'0 0.0
2018-Apr-08 00:00N 39°16' W 076°35'0 0.0
2018-Apr-07 23:30N 39°16' W 076°35'0 0.0
2018-Apr-07 23:00N 39°16' W 076°35'0 0.0
2018-Apr-07 22:30N 39°16' W 076°35'0 0.0
2018-Apr-07 22:00N 39°16' W 076°35'0 0.0
2018-Apr-07 21:30N 39°16' W 076°35'0 0.0
2018-Apr-07 20:58N 39°16' W 076°35'0 0.0
2018-Apr-07 20:30N 39°16' W 076°35'0 0.0
2018-Apr-07 20:00N 39°16' W 076°35'0 0.0
2018-Apr-07 19:30N 39°16' W 076°35'0 0.0
2018-Apr-07 19:00N 39°16' W 076°35'0 0.0
2018-Apr-07 18:30N 39°16' W 076°35'0 0.0
2018-Apr-07 18:00N 39°16' W 076°35'0 0.0
2018-Apr-07 17:30N 39°16' W 076°35'0 0.0
2018-Apr-07 17:00N 39°16' W 076°35'0 0.0
2018-Apr-07 16:30N 39°16' W 076°35'0 0.0
2018-Apr-07 16:00N 39°16' W 076°35'0 0.0
2018-Apr-07 15:30N 39°16' W 076°35'0 0.0
2018-Apr-07 15:00N 39°16' W 076°35'0 0.0
2018-Apr-07 14:30N 39°16' W 076°35'0 0.0
2018-Apr-07 14:00N 39°16' W 076°35'0 0.0
2018-Apr-07 13:30N 39°16' W 076°35'0 0.0
2018-Apr-07 13:00N 39°16' W 076°35'0 0.0
2018-Apr-07 12:29N 39°16' W 076°35'0 0.0
2018-Apr-07 12:00N 39°16' W 076°35'0 0.0
2018-Apr-07 11:30N 39°16' W 076°35'0 0.0
2018-Apr-07 11:00N 39°16' W 076°35'0 0.0
2018-Apr-07 10:30N 39°16' W 076°35'0 0.0
2018-Apr-07 10:00N 39°16' W 076°35'0 0.0
2018-Apr-07 09:30N 39°16' W 076°35'0 0.0
2018-Apr-07 09:00N 39°16' W 076°35'0 0.0
2018-Apr-07 08:30N 39°16' W 076°35'0 0.0
2018-Apr-07 08:00N 39°16' W 076°35'0 0.0
2018-Apr-07 07:30N 39°16' W 076°35'0 0.0
2018-Apr-07 07:00N 39°16' W 076°35'0 0.0
2018-Apr-07 06:30N 39°16' W 076°35'0 0.0
2018-Apr-07 06:00N 39°16' W 076°35'0 0.0
2018-Apr-07 05:30N 39°16' W 076°35'0 0.0
2018-Apr-07 05:00N 39°16' W 076°35'0 0.0
2018-Apr-07 04:30N 39°16' W 076°35'0 0.0
2018-Apr-07 04:00N 39°16' W 076°35'0 0.0
2018-Apr-07 03:30N 39°16' W 076°35'0 0.0
2018-Apr-07 03:00N 39°16' W 076°35'0 0.0
2018-Apr-07 02:30N 39°16' W 076°35'0 0.0
2018-Apr-07 02:00N 39°16' W 076°35'0 0.0
2018-Apr-07 01:30N 39°16' W 076°35'0 0.0
2018-Apr-07 01:00N 39°16' W 076°35'0 0.0
2018-Apr-07 00:30N 39°16' W 076°35'0 0.0
2018-Apr-07 00:00N 39°16' W 076°35'0 0.0
2018-Apr-06 23:30N 39°16' W 076°35'0 0.0
2018-Apr-06 23:00N 39°16' W 076°35'0 0.0
2018-Apr-06 22:30N 39°16' W 076°35'0 0.0
2018-Apr-06 22:00N 39°16' W 076°35'0 0.0
2018-Apr-06 21:30N 39°16' W 076°35'0 0.0
2018-Apr-06 21:00N 39°16' W 076°35'0 0.0
2018-Apr-06 20:30N 39°16' W 076°35'0 0.0
2018-Apr-06 20:00N 39°16' W 076°35'0 0.0
2018-Apr-06 19:30N 39°16' W 076°35'0 0.0
2018-Apr-06 19:00N 39°16' W 076°35'0 0.0
2018-Apr-06 18:30N 39°16' W 076°35'0 0.0
2018-Apr-06 18:00N 39°16' W 076°35'0 0.0
2018-Apr-06 17:30N 39°16' W 076°35'0 0.0
2018-Apr-06 17:00N 39°16' W 076°35'0 0.0
2018-Apr-06 16:30N 39°16' W 076°35'0 0.0
2018-Apr-06 16:00N 39°16' W 076°35'0 0.0
2018-Apr-06 15:30N 39°16' W 076°35'0 0.0
2018-Apr-06 15:00N 39°16' W 076°35'0 0.0
2018-Apr-06 14:30N 39°16' W 076°35'0 0.0
2018-Apr-06 14:00N 39°16' W 076°35'0 0.0
2018-Apr-06 13:30N 39°16' W 076°35'0 0.0
2018-Apr-06 13:00N 39°16' W 076°35'0 0.0
2018-Apr-06 12:30N 39°16' W 076°35'0 0.0
2018-Apr-06 12:00N 39°16' W 076°35'0 0.0
2018-Apr-06 11:30N 39°16' W 076°35'0 0.0
2018-Apr-06 11:00N 39°16' W 076°35'0 0.0
2018-Apr-06 10:30N 39°16' W 076°35'0 0.0
2018-Apr-06 10:00N 39°16' W 076°35'0 0.0
2018-Apr-06 09:30N 39°16' W 076°35'0 0.0
2018-Apr-06 09:00N 39°16' W 076°35'0 0.0
2018-Apr-06 08:30N 39°16' W 076°35'0 0.0
2018-Apr-06 08:00N 39°16' W 076°35'0 0.0
2018-Apr-06 07:30N 39°16' W 076°35'0 0.0
2018-Apr-06 07:00N 39°16' W 076°35'0 0.0
2018-Apr-06 06:30N 39°16' W 076°35'0 0.0
2018-Apr-06 06:00N 39°16' W 076°35'0 0.1
2018-Apr-06 05:30N 39°16' W 076°35'0 0.1
2018-Apr-06 05:00N 39°16' W 076°35'0 0.0
2018-Apr-06 04:30N 39°16' W 076°35'0 0.0
2018-Apr-06 04:00N 39°16' W 076°35'0 0.0
2018-Apr-06 03:29N 39°16' W 076°35'0 0.0
2018-Apr-06 03:00N 39°16' W 076°35'0 0.0
2018-Apr-06 02:30N 39°16' W 076°35'0 0.0
2018-Apr-06 02:00N 39°16' W 076°35'0 0.0
2018-Apr-06 01:30N 39°16' W 076°35'0 0.0
2018-Apr-06 01:00N 39°16' W 076°35'0 0.0
2018-Apr-06 00:30N 39°16' W 076°35'0 0.0
2018-Apr-06 00:00N 39°16' W 076°35'0 0.0
2018-Apr-05 23:30N 39°16' W 076°35'0 0.0
2018-Apr-05 23:00N 39°16' W 076°35'0 0.0
2018-Apr-05 22:30N 39°16' W 076°35'0 0.0
2018-Apr-05 21:59N 39°16' W 076°35'0 0.0
2018-Apr-05 21:30N 39°16' W 076°35'0 0.0
2018-Apr-05 21:00N 39°16' W 076°35'0 0.0
2018-Apr-05 20:30N 39°16' W 076°35'0 0.0
2018-Apr-05 20:00N 39°16' W 076°35'0 0.0
2018-Apr-05 19:30N 39°16' W 076°35'0 0.0
2018-Apr-05 19:00N 39°16' W 076°35'0 0.0
2018-Apr-05 18:30N 39°16' W 076°35'0 0.0
2018-Apr-05 17:58N 39°16' W 076°35'0 0.0
2018-Apr-05 17:30N 39°16' W 076°35'0 0.0
2018-Apr-05 17:00N 39°16' W 076°35'0 0.0
2018-Apr-05 16:30N 39°16' W 076°35'0 0.0
2018-Apr-05 16:00N 39°16' W 076°35'0 0.0
2018-Apr-05 15:30N 39°16' W 076°35'0 0.0
2018-Apr-05 15:00N 39°16' W 076°35'0 0.0
2018-Apr-05 14:30N 39°16' W 076°35'0 0.0
2018-Apr-05 14:00N 39°16' W 076°35'0 0.0
2018-Apr-05 13:30N 39°16' W 076°35'0 0.0
2018-Apr-05 13:00N 39°16' W 076°35'0 0.0
2018-Apr-05 12:30N 39°16' W 076°35'0 0.0
2018-Apr-05 12:00N 39°16' W 076°35'0 0.0
2018-Apr-05 11:30N 39°16' W 076°35'0 0.0
2018-Apr-05 11:00N 39°16' W 076°35'0 0.0
2018-Apr-05 10:30N 39°16' W 076°35'0 0.0
2018-Apr-05 10:00N 39°16' W 076°35'0 0.0
2018-Apr-05 09:30N 39°16' W 076°35'0 0.0
2018-Apr-05 09:00N 39°16' W 076°35'0 0.0
2018-Apr-05 08:30N 39°16' W 076°35'0 0.0
2018-Apr-05 08:00N 39°16' W 076°35'0 0.0
2018-Apr-05 07:30N 39°16' W 076°35'0 0.0
2018-Apr-05 07:00N 39°16' W 076°35'0 0.0
2018-Apr-05 06:29N 39°16' W 076°35'0 0.0
2018-Apr-05 06:00N 39°16' W 076°35'0 0.0
2018-Apr-05 05:30N 39°16' W 076°35'0 0.0
2018-Apr-05 05:00N 39°16' W 076°35'0 0.0
2018-Apr-05 04:30N 39°16' W 076°35'0 0.0
2018-Apr-05 04:00N 39°16' W 076°35'0 0.0
2018-Apr-05 03:30N 39°16' W 076°35'0 0.0
2018-Apr-05 03:00N 39°16' W 076°35'0 0.0
2018-Apr-05 02:30N 39°16' W 076°35'0 0.0
2018-Apr-05 02:00N 39°16' W 076°35'0 0.0
2018-Apr-05 01:30N 39°16' W 076°35'0 0.0
2018-Apr-05 01:00N 39°16' W 076°35'0 0.0
2018-Apr-05 00:30N 39°16' W 076°35'0 0.0
2018-Apr-05 00:00N 39°16' W 076°35'0 0.0
2018-Apr-04 23:29N 39°16' W 076°35'0 0.0
2018-Apr-04 23:00N 39°16' W 076°35'0 0.0
2018-Apr-04 22:30N 39°16' W 076°35'0 0.0
2018-Apr-04 22:00N 39°16' W 076°35'0 0.0
2018-Apr-04 21:30N 39°16' W 076°35'0 0.0
2018-Apr-04 21:00N 39°16' W 076°35'0 0.0
2018-Apr-04 20:30N 39°16' W 076°35'0 0.0
2018-Apr-04 20:00N 39°16' W 076°35'0 0.0
2018-Apr-04 19:30N 39°16' W 076°35'0 0.0
2018-Apr-04 19:00N 39°16' W 076°35'0 0.0
2018-Apr-04 18:30N 39°16' W 076°35'0 0.0
2018-Apr-04 18:00N 39°16' W 076°35'0 0.0
2018-Apr-04 17:30N 39°16' W 076°35'0 0.0
2018-Apr-04 17:00N 39°16' W 076°35'0 0.0
2018-Apr-04 16:30N 39°16' W 076°35'0 0.0
2018-Apr-04 16:00N 39°16' W 076°35'0 0.0
2018-Apr-04 15:30N 39°16' W 076°35'0 0.0
2018-Apr-04 15:00N 39°16' W 076°35'0 0.0
2018-Apr-04 14:30N 39°16' W 076°35'0 0.0
2018-Apr-04 13:58N 39°16' W 076°35'0 0.0
2018-Apr-04 13:30N 39°16' W 076°35'0 0.0
2018-Apr-04 12:59N 39°16' W 076°35'0 0.2
2018-Apr-04 12:30N 39°16' W 076°35'0 0.5
2018-Apr-04 12:00N 39°16' W 076°35'0 0.5
2018-Apr-04 11:30N 39°16' W 076°35'0 0.1
2018-Apr-04 11:00N 39°16' W 076°35'0 0.0
2018-Apr-04 10:30N 39°16' W 076°35'0 0.0
2018-Apr-04 10:00N 39°16' W 076°35'0 0.0
2018-Apr-04 09:30N 39°16' W 076°35'0 0.0
2018-Apr-04 09:00N 39°16' W 076°35'0 0.0
2018-Apr-04 08:30N 39°16' W 076°35'0 0.0
2018-Apr-04 08:00N 39°16' W 076°35'0 0.0
2018-Apr-04 07:30N 39°16' W 076°35'0 0.0
2018-Apr-04 07:00N 39°16' W 076°35'  

Dump ship's entire track history